sensor_id;sensor_type;location;lat;lon;timestamp;P1;durP1;ratioP1;P2;durP2;ratioP2
70549;SDS011;58101;48.658;2.328;2023-07-22T00:00:32;7.50;;;2.53;;
70549;SDS011;58101;48.658;2.328;2023-07-22T00:02:57;7.70;;;2.33;;
70549;SDS011;58101;48.658;2.328;2023-07-22T00:05:23;8.38;;;2.70;;
70549;SDS011;58101;48.658;2.328;2023-07-22T00:07:49;8.30;;;2.40;;
70549;SDS011;58101;48.658;2.328;2023-07-22T00:10:15;8.38;;;2.85;;
70549;SDS011;58101;48.658;2.328;2023-07-22T00:12:41;6.78;;;2.28;;
70549;SDS011;58101;48.658;2.328;2023-07-22T00:15:07;8.38;;;2.50;;
70549;SDS011;58101;48.658;2.328;2023-07-22T00:19:58;7.15;;;2.33;;
70549;SDS011;58101;48.658;2.328;2023-07-22T00:22:25;8.38;;;2.78;;
70549;SDS011;58101;48.658;2.328;2023-07-22T00:24:52;8.52;;;2.47;;
70549;SDS011;58101;48.658;2.328;2023-07-22T00:27:17;8.40;;;2.70;;
70549;SDS011;58101;48.658;2.328;2023-07-22T00:29:43;8.18;;;2.50;;
70549;SDS011;58101;48.658;2.328;2023-07-22T00:32:09;7.53;;;2.60;;
70549;SDS011;58101;48.658;2.328;2023-07-22T00:34:35;10.25;;;2.88;;
70549;SDS011;58101;48.658;2.328;2023-07-22T00:37:01;7.60;;;2.33;;
70549;SDS011;58101;48.658;2.328;2023-07-22T00:39:28;7.63;;;2.53;;
70549;SDS011;58101;48.658;2.328;2023-07-22T00:41:54;7.10;;;2.25;;
70549;SDS011;58101;48.658;2.328;2023-07-22T00:44:19;8.00;;;2.40;;
70549;SDS011;58101;48.658;2.328;2023-07-22T00:46:45;8.82;;;2.40;;
70549;SDS011;58101;48.658;2.328;2023-07-22T00:49:10;7.78;;;2.83;;
70549;SDS011;58101;48.658;2.328;2023-07-22T00:51:39;8.20;;;2.50;;
70549;SDS011;58101;48.658;2.328;2023-07-22T00:54:05;8.75;;;2.65;;
70549;SDS011;58101;48.658;2.328;2023-07-22T00:56:31;10.02;;;2.70;;
70549;SDS011;58101;48.658;2.328;2023-07-22T00:59:00;9.07;;;2.67;;
70549;SDS011;58101;48.658;2.328;2023-07-22T01:01:26;7.38;;;2.53;;
70549;SDS011;58101;48.658;2.328;2023-07-22T01:03:52;6.70;;;2.58;;
70549;SDS011;58101;48.658;2.328;2023-07-22T01:06:18;7.88;;;2.70;;
70549;SDS011;58101;48.658;2.328;2023-07-22T01:08:45;7.32;;;2.90;;
70549;SDS011;58101;48.658;2.328;2023-07-22T01:11:11;7.75;;;2.70;;
70549;SDS011;58101;48.658;2.328;2023-07-22T01:13:38;8.57;;;2.35;;
70549;SDS011;58101;48.658;2.328;2023-07-22T01:16:04;7.95;;;2.50;;
70549;SDS011;58101;48.658;2.328;2023-07-22T01:18:32;8.65;;;2.58;;
70549;SDS011;58101;48.658;2.328;2023-07-22T01:21:01;8.88;;;2.53;;
70549;SDS011;58101;48.658;2.328;2023-07-22T01:23:26;7.80;;;2.53;;
70549;SDS011;58101;48.658;2.328;2023-07-22T01:25:52;7.07;;;2.58;;
70549;SDS011;58101;48.658;2.328;2023-07-22T01:28:20;6.85;;;2.25;;
70549;SDS011;58101;48.658;2.328;2023-07-22T01:30:47;7.95;;;2.60;;
70549;SDS011;58101;48.658;2.328;2023-07-22T01:33:13;6.88;;;2.63;;
70549;SDS011;58101;48.658;2.328;2023-07-22T01:35:39;7.85;;;2.80;;
70549;SDS011;58101;48.658;2.328;2023-07-22T01:38:05;8.13;;;2.70;;
70549;SDS011;58101;48.658;2.328;2023-07-22T01:40:32;8.65;;;2.53;;
70549;SDS011;58101;48.658;2.328;2023-07-22T01:42:57;10.43;;;2.72;;
70549;SDS011;58101;48.658;2.328;2023-07-22T01:45:23;6.93;;;2.60;;
70549;SDS011;58101;48.658;2.328;2023-07-22T01:47:48;7.18;;;2.72;;
70549;SDS011;58101;48.658;2.328;2023-07-22T01:50:14;6.82;;;2.70;;
70549;SDS011;58101;48.658;2.328;2023-07-22T01:52:39;9.90;;;2.67;;
70549;SDS011;58101;48.658;2.328;2023-07-22T01:55:05;8.70;;;2.58;;
70549;SDS011;58101;48.658;2.328;2023-07-22T01:57:33;7.55;;;2.58;;
70549;SDS011;58101;48.658;2.328;2023-07-22T01:59:59;8.88;;;2.58;;
70549;SDS011;58101;48.658;2.328;2023-07-22T02:02:26;8.18;;;2.78;;
70549;SDS011;58101;48.658;2.328;2023-07-22T02:04:51;8.52;;;2.83;;
70549;SDS011;58101;48.658;2.328;2023-07-22T02:07:17;7.32;;;2.90;;
70549;SDS011;58101;48.658;2.328;2023-07-22T02:09:43;7.28;;;2.60;;
70549;SDS011;58101;48.658;2.328;2023-07-22T02:12:09;9.80;;;2.88;;
70549;SDS011;58101;48.658;2.328;2023-07-22T02:14:35;8.50;;;3.10;;
70549;SDS011;58101;48.658;2.328;2023-07-22T02:17:02;8.07;;;3.25;;
70549;SDS011;58101;48.658;2.328;2023-07-22T02:19:28;8.60;;;2.80;;
70549;SDS011;58101;48.658;2.328;2023-07-22T02:21:54;9.43;;;3.00;;
70549;SDS011;58101;48.658;2.328;2023-07-22T02:24:20;9.05;;;3.00;;
70549;SDS011;58101;48.658;2.328;2023-07-22T02:26:45;9.90;;;2.70;;
70549;SDS011;58101;48.658;2.328;2023-07-22T02:29:11;8.40;;;2.75;;
70549;SDS011;58101;48.658;2.328;2023-07-22T02:31:37;7.13;;;2.67;;
70549;SDS011;58101;48.658;2.328;2023-07-22T02:34:04;7.88;;;2.80;;
70549;SDS011;58101;48.658;2.328;2023-07-22T02:36:30;7.20;;;2.67;;
70549;SDS011;58101;48.658;2.328;2023-07-22T02:38:56;7.80;;;2.72;;
70549;SDS011;58101;48.658;2.328;2023-07-22T02:41:22;7.20;;;2.70;;
70549;SDS011;58101;48.658;2.328;2023-07-22T02:43:47;7.60;;;2.67;;
70549;SDS011;58101;48.658;2.328;2023-07-22T02:46:13;8.15;;;2.90;;
70549;SDS011;58101;48.658;2.328;2023-07-22T02:48:38;8.90;;;2.83;;
70549;SDS011;58101;48.658;2.328;2023-07-22T02:51:06;12.30;;;3.10;;
70549;SDS011;58101;48.658;2.328;2023-07-22T02:53:33;8.80;;;2.90;;
70549;SDS011;58101;48.658;2.328;2023-07-22T02:55:59;8.57;;;2.63;;
70549;SDS011;58101;48.658;2.328;2023-07-22T02:58:25;7.68;;;2.85;;
70549;SDS011;58101;48.658;2.328;2023-07-22T03:00:50;9.15;;;3.03;;
70549;SDS011;58101;48.658;2.328;2023-07-22T03:03:16;8.85;;;2.90;;
70549;SDS011;58101;48.658;2.328;2023-07-22T03:05:44;7.90;;;2.97;;
70549;SDS011;58101;48.658;2.328;2023-07-22T03:08:09;8.02;;;2.92;;
70549;SDS011;58101;48.658;2.328;2023-07-22T03:10:35;7.97;;;2.92;;
70549;SDS011;58101;48.658;2.328;2023-07-22T03:13:01;8.07;;;3.15;;
70549;SDS011;58101;48.658;2.328;2023-07-22T03:15:28;8.95;;;2.90;;
70549;SDS011;58101;48.658;2.328;2023-07-22T03:17:55;8.32;;;3.30;;
70549;SDS011;58101;48.658;2.328;2023-07-22T03:20:21;9.10;;;3.10;;
70549;SDS011;58101;48.658;2.328;2023-07-22T03:22:49;8.55;;;3.13;;
70549;SDS011;58101;48.658;2.328;2023-07-22T03:25:15;8.60;;;3.15;;
70549;SDS011;58101;48.658;2.328;2023-07-22T03:27:44;9.18;;;3.22;;
70549;SDS011;58101;48.658;2.328;2023-07-22T03:30:11;9.10;;;3.50;;
70549;SDS011;58101;48.658;2.328;2023-07-22T03:32:40;11.70;;;3.13;;
70549;SDS011;58101;48.658;2.328;2023-07-22T03:35:07;8.60;;;3.25;;
70549;SDS011;58101;48.658;2.328;2023-07-22T03:37:34;9.23;;;3.03;;
70549;SDS011;58101;48.658;2.328;2023-07-22T03:40:01;7.80;;;2.90;;
70549;SDS011;58101;48.658;2.328;2023-07-22T03:42:33;8.32;;;3.20;;
70549;SDS011;58101;48.658;2.328;2023-07-22T03:44:59;8.90;;;3.13;;
70549;SDS011;58101;48.658;2.328;2023-07-22T03:47:24;9.27;;;3.40;;
70549;SDS011;58101;48.658;2.328;2023-07-22T03:49:50;9.23;;;3.20;;
70549;SDS011;58101;48.658;2.328;2023-07-22T03:52:16;9.60;;;3.40;;
70549;SDS011;58101;48.658;2.328;2023-07-22T03:54:43;9.98;;;3.08;;
70549;SDS011;58101;48.658;2.328;2023-07-22T03:57:09;8.40;;;3.15;;
70549;SDS011;58101;48.658;2.328;2023-07-22T03:59:35;9.85;;;3.40;;
70549;SDS011;58101;48.658;2.328;2023-07-22T04:02:01;10.48;;;3.10;;
70549;SDS011;58101;48.658;2.328;2023-07-22T04:04:27;9.43;;;3.40;;
70549;SDS011;58101;48.658;2.328;2023-07-22T04:06:52;10.10;;;3.40;;
70549;SDS011;58101;48.658;2.328;2023-07-22T04:09:18;8.25;;;3.30;;
70549;SDS011;58101;48.658;2.328;2023-07-22T04:11:44;8.07;;;3.17;;
70549;SDS011;58101;48.658;2.328;2023-07-22T04:14:09;7.82;;;3.10;;
70549;SDS011;58101;48.658;2.328;2023-07-22T04:16:37;10.55;;;3.70;;
70549;SDS011;58101;48.658;2.328;2023-07-22T04:19:03;9.65;;;3.45;;
70549;SDS011;58101;48.658;2.328;2023-07-22T04:21:29;8.63;;;3.45;;
70549;SDS011;58101;48.658;2.328;2023-07-22T04:23:54;8.88;;;3.50;;
70549;SDS011;58101;48.658;2.328;2023-07-22T04:26:20;8.63;;;3.42;;
70549;SDS011;58101;48.658;2.328;2023-07-22T04:28:45;10.02;;;3.40;;
70549;SDS011;58101;48.658;2.328;2023-07-22T04:31:11;10.63;;;3.60;;
70549;SDS011;58101;48.658;2.328;2023-07-22T04:33:37;10.30;;;3.63;;
70549;SDS011;58101;48.658;2.328;2023-07-22T04:36:02;9.45;;;3.58;;
70549;SDS011;58101;48.658;2.328;2023-07-22T04:38:28;10.77;;;3.63;;
70549;SDS011;58101;48.658;2.328;2023-07-22T04:40:54;9.40;;;3.70;;
70549;SDS011;58101;48.658;2.328;2023-07-22T04:43:19;9.88;;;3.70;;
70549;SDS011;58101;48.658;2.328;2023-07-22T04:45:45;10.75;;;3.35;;
70549;SDS011;58101;48.658;2.328;2023-07-22T04:48:13;10.30;;;3.45;;
70549;SDS011;58101;48.658;2.328;2023-07-22T04:50:41;9.00;;;3.50;;
70549;SDS011;58101;48.658;2.328;2023-07-22T04:53:09;9.73;;;3.75;;
70549;SDS011;58101;48.658;2.328;2023-07-22T04:55:35;9.85;;;3.80;;
70549;SDS011;58101;48.658;2.328;2023-07-22T04:58:02;9.27;;;3.70;;
70549;SDS011;58101;48.658;2.328;2023-07-22T05:00:28;9.75;;;3.70;;
70549;SDS011;58101;48.658;2.328;2023-07-22T05:02:54;10.25;;;3.47;;
70549;SDS011;58101;48.658;2.328;2023-07-22T05:05:21;8.88;;;3.53;;
70549;SDS011;58101;48.658;2.328;2023-07-22T05:07:49;9.10;;;3.60;;
70549;SDS011;58101;48.658;2.328;2023-07-22T05:10:15;10.05;;;4.07;;
70549;SDS011;58101;48.658;2.328;2023-07-22T05:12:41;10.02;;;3.92;;
70549;SDS011;58101;48.658;2.328;2023-07-22T05:15:09;9.48;;;3.40;;
70549;SDS011;58101;48.658;2.328;2023-07-22T05:17:35;10.60;;;3.70;;
70549;SDS011;58101;48.658;2.328;2023-07-22T05:20:01;12.15;;;3.72;;
70549;SDS011;58101;48.658;2.328;2023-07-22T05:22:26;10.02;;;3.60;;
70549;SDS011;58101;48.658;2.328;2023-07-22T05:24:52;10.00;;;4.00;;
70549;SDS011;58101;48.658;2.328;2023-07-22T05:27:18;9.90;;;3.78;;
70549;SDS011;58101;48.658;2.328;2023-07-22T05:29:43;10.52;;;3.60;;
70549;SDS011;58101;48.658;2.328;2023-07-22T05:32:10;9.88;;;3.60;;
70549;SDS011;58101;48.658;2.328;2023-07-22T05:34:36;12.80;;;3.60;;
70549;SDS011;58101;48.658;2.328;2023-07-22T05:37:01;10.13;;;3.60;;
70549;SDS011;58101;48.658;2.328;2023-07-22T05:39:27;9.43;;;4.07;;
70549;SDS011;58101;48.658;2.328;2023-07-22T05:41:52;11.02;;;3.85;;
70549;SDS011;58101;48.658;2.328;2023-07-22T05:44:18;10.45;;;3.53;;
70549;SDS011;58101;48.658;2.328;2023-07-22T05:46:44;11.10;;;3.80;;
70549;SDS011;58101;48.658;2.328;2023-07-22T05:49:09;10.35;;;3.88;;
70549;SDS011;58101;48.658;2.328;2023-07-22T05:51:38;11.35;;;3.65;;
70549;SDS011;58101;48.658;2.328;2023-07-22T05:54:04;11.10;;;3.78;;
70549;SDS011;58101;48.658;2.328;2023-07-22T05:56:32;8.93;;;3.50;;
70549;SDS011;58101;48.658;2.328;2023-07-22T05:58:58;9.55;;;3.50;;
70549;SDS011;58101;48.658;2.328;2023-07-22T06:01:24;10.45;;;3.85;;
70549;SDS011;58101;48.658;2.328;2023-07-22T06:03:49;8.73;;;3.35;;
70549;SDS011;58101;48.658;2.328;2023-07-22T06:06:15;10.32;;;3.50;;
70549;SDS011;58101;48.658;2.328;2023-07-22T06:08:41;9.98;;;3.67;;
70549;SDS011;58101;48.658;2.328;2023-07-22T06:11:07;9.45;;;3.70;;
70549;SDS011;58101;48.658;2.328;2023-07-22T06:13:32;8.13;;;3.55;;
70549;SDS011;58101;48.658;2.328;2023-07-22T06:15:58;9.88;;;3.50;;
70549;SDS011;58101;48.658;2.328;2023-07-22T06:18:24;10.70;;;3.60;;
70549;SDS011;58101;48.658;2.328;2023-07-22T06:20:49;11.20;;;3.55;;
70549;SDS011;58101;48.658;2.328;2023-07-22T06:23:15;11.35;;;3.58;;
70549;SDS011;58101;48.658;2.328;2023-07-22T06:25:41;9.38;;;3.45;;
70549;SDS011;58101;48.658;2.328;2023-07-22T06:28:10;9.40;;;3.30;;
70549;SDS011;58101;48.658;2.328;2023-07-22T06:30:35;10.38;;;3.90;;
70549;SDS011;58101;48.658;2.328;2023-07-22T06:33:01;9.57;;;3.78;;
70549;SDS011;58101;48.658;2.328;2023-07-22T06:35:27;8.73;;;3.60;;
70549;SDS011;58101;48.658;2.328;2023-07-22T06:37:52;9.35;;;3.75;;
70549;SDS011;58101;48.658;2.328;2023-07-22T06:40:18;13.23;;;4.45;;
70549;SDS011;58101;48.658;2.328;2023-07-22T06:42:44;8.88;;;3.45;;
70549;SDS011;58101;48.658;2.328;2023-07-22T06:45:09;10.57;;;3.83;;
70549;SDS011;58101;48.658;2.328;2023-07-22T06:47:35;8.50;;;3.20;;
70549;SDS011;58101;48.658;2.328;2023-07-22T06:50:02;9.70;;;3.50;;
70549;SDS011;58101;48.658;2.328;2023-07-22T06:52:29;9.13;;;3.78;;
70549;SDS011;58101;48.658;2.328;2023-07-22T06:54:55;10.50;;;3.47;;
70549;SDS011;58101;48.658;2.328;2023-07-22T06:57:21;9.50;;;3.58;;
70549;SDS011;58101;48.658;2.328;2023-07-22T06:59:46;9.88;;;3.78;;
70549;SDS011;58101;48.658;2.328;2023-07-22T07:02:12;9.25;;;3.33;;
70549;SDS011;58101;48.658;2.328;2023-07-22T07:04:37;9.05;;;3.25;;
70549;SDS011;58101;48.658;2.328;2023-07-22T07:07:03;8.85;;;3.05;;
70549;SDS011;58101;48.658;2.328;2023-07-22T07:09:29;9.77;;;3.35;;
70549;SDS011;58101;48.658;2.328;2023-07-22T07:11:55;7.90;;;3.28;;
70549;SDS011;58101;48.658;2.328;2023-07-22T07:14:23;9.82;;;3.60;;
70549;SDS011;58101;48.658;2.328;2023-07-22T07:19:15;10.68;;;3.65;;
70549;SDS011;58101;48.658;2.328;2023-07-22T07:21:40;7.45;;;2.97;;
70549;SDS011;58101;48.658;2.328;2023-07-22T07:24:06;8.55;;;3.00;;
70549;SDS011;58101;48.658;2.328;2023-07-22T07:26:32;9.20;;;3.50;;
70549;SDS011;58101;48.658;2.328;2023-07-22T07:28:58;9.20;;;3.30;;
70549;SDS011;58101;48.658;2.328;2023-07-22T07:31:23;10.43;;;3.33;;
70549;SDS011;58101;48.658;2.328;2023-07-22T07:33:52;9.63;;;3.60;;
70549;SDS011;58101;48.658;2.328;2023-07-22T07:36:18;13.10;;;3.50;;
70549;SDS011;58101;48.658;2.328;2023-07-22T07:38:46;9.93;;;3.50;;
70549;SDS011;58101;48.658;2.328;2023-07-22T07:41:11;9.10;;;3.10;;
70549;SDS011;58101;48.658;2.328;2023-07-22T07:43:38;8.98;;;3.22;;
70549;SDS011;58101;48.658;2.328;2023-07-22T07:48:42;9.85;;;3.72;;
70549;SDS011;58101;48.658;2.328;2023-07-22T07:51:09;8.55;;;3.60;;
70549;SDS011;58101;48.658;2.328;2023-07-22T07:53:37;9.75;;;3.30;;
70549;SDS011;58101;48.658;2.328;2023-07-22T07:56:02;9.77;;;3.55;;
70549;SDS011;58101;48.658;2.328;2023-07-22T07:58:28;9.60;;;3.33;;
70549;SDS011;58101;48.658;2.328;2023-07-22T08:00:54;8.82;;;3.22;;
70549;SDS011;58101;48.658;2.328;2023-07-22T08:03:19;9.70;;;3.67;;
70549;SDS011;58101;48.658;2.328;2023-07-22T08:05:45;8.88;;;3.65;;
70549;SDS011;58101;48.658;2.328;2023-07-22T08:08:11;8.40;;;3.20;;
70549;SDS011;58101;48.658;2.328;2023-07-22T08:10:36;10.77;;;3.45;;
70549;SDS011;58101;48.658;2.328;2023-07-22T08:13:02;9.63;;;3.38;;
70549;SDS011;58101;48.658;2.328;2023-07-22T08:15:28;9.80;;;3.63;;
70549;SDS011;58101;48.658;2.328;2023-07-22T08:17:53;9.70;;;3.58;;
70549;SDS011;58101;48.658;2.328;2023-07-22T08:20:19;9.30;;;3.70;;
70549;SDS011;58101;48.658;2.328;2023-07-22T08:22:46;8.63;;;3.50;;
70549;SDS011;58101;48.658;2.328;2023-07-22T08:25:11;8.85;;;3.40;;
70549;SDS011;58101;48.658;2.328;2023-07-22T08:27:37;8.77;;;3.38;;
70549;SDS011;58101;48.658;2.328;2023-07-22T08:30:03;7.93;;;3.30;;
70549;SDS011;58101;48.658;2.328;2023-07-22T08:32:29;8.05;;;3.30;;
70549;SDS011;58101;48.658;2.328;2023-07-22T08:34:54;11.30;;;3.80;;
70549;SDS011;58101;48.658;2.328;2023-07-22T08:37:20;8.63;;;3.58;;
70549;SDS011;58101;48.658;2.328;2023-07-22T08:39:46;9.15;;;3.60;;
70549;SDS011;58101;48.658;2.328;2023-07-22T08:42:11;9.30;;;3.78;;
70549;SDS011;58101;48.658;2.328;2023-07-22T08:44:40;9.52;;;3.70;;
70549;SDS011;58101;48.658;2.328;2023-07-22T08:47:09;8.57;;;3.28;;
70549;SDS011;58101;48.658;2.328;2023-07-22T08:49:38;10.18;;;3.58;;
70549;SDS011;58101;48.658;2.328;2023-07-22T08:52:07;8.93;;;3.28;;
70549;SDS011;58101;48.658;2.328;2023-07-22T08:54:32;8.98;;;3.60;;
70549;SDS011;58101;48.658;2.328;2023-07-22T08:56:58;8.52;;;3.60;;
70549;SDS011;58101;48.658;2.328;2023-07-22T08:59:24;11.57;;;3.60;;
70549;SDS011;58101;48.658;2.328;2023-07-22T09:01:50;7.80;;;3.13;;
70549;SDS011;58101;48.658;2.328;2023-07-22T09:04:17;7.80;;;3.28;;
70549;SDS011;58101;48.658;2.328;2023-07-22T09:06:44;7.88;;;3.13;;
70549;SDS011;58101;48.658;2.328;2023-07-22T09:11:37;7.72;;;3.17;;
70549;SDS011;58101;48.658;2.328;2023-07-22T09:14:03;10.65;;;3.20;;
70549;SDS011;58101;48.658;2.328;2023-07-22T09:16:32;9.82;;;3.38;;
70549;SDS011;58101;48.658;2.328;2023-07-22T09:18:58;7.88;;;3.40;;
70549;SDS011;58101;48.658;2.328;2023-07-22T09:21:24;9.77;;;3.10;;
70549;SDS011;58101;48.658;2.328;2023-07-22T09:23:50;7.95;;;3.10;;
70549;SDS011;58101;48.658;2.328;2023-07-22T09:26:17;7.43;;;2.95;;
70549;SDS011;58101;48.658;2.328;2023-07-22T09:31:18;9.90;;;3.17;;
70549;SDS011;58101;48.658;2.328;2023-07-22T09:33:45;7.22;;;2.90;;
70549;SDS011;58101;48.658;2.328;2023-07-22T09:36:11;8.95;;;2.88;;
70549;SDS011;58101;48.658;2.328;2023-07-22T09:38:37;9.10;;;3.00;;
70549;SDS011;58101;48.658;2.328;2023-07-22T09:41:03;8.13;;;2.90;;
70549;SDS011;58101;48.658;2.328;2023-07-22T09:43:29;8.75;;;2.85;;
70549;SDS011;58101;48.658;2.328;2023-07-22T09:45:55;7.68;;;2.72;;
70549;SDS011;58101;48.658;2.328;2023-07-22T09:48:23;7.38;;;2.70;;
70549;SDS011;58101;48.658;2.328;2023-07-22T09:50:56;7.53;;;2.97;;
70549;SDS011;58101;48.658;2.328;2023-07-22T09:53:22;6.97;;;2.60;;
70549;SDS011;58101;48.658;2.328;2023-07-22T09:55:48;6.72;;;2.80;;
70549;SDS011;58101;48.658;2.328;2023-07-22T09:58:17;7.13;;;2.70;;
70549;SDS011;58101;48.658;2.328;2023-07-22T10:00:47;8.32;;;3.08;;
70549;SDS011;58101;48.658;2.328;2023-07-22T10:03:15;6.30;;;2.60;;
70549;SDS011;58101;48.658;2.328;2023-07-22T10:05:44;6.30;;;2.60;;
70549;SDS011;58101;48.658;2.328;2023-07-22T10:08:13;7.57;;;2.47;;
70549;SDS011;58101;48.658;2.328;2023-07-22T10:10:43;8.35;;;2.78;;
70549;SDS011;58101;48.658;2.328;2023-07-22T10:13:09;7.55;;;2.88;;
70549;SDS011;58101;48.658;2.328;2023-07-22T10:15:36;7.18;;;2.92;;
70549;SDS011;58101;48.658;2.328;2023-07-22T10:18:03;8.07;;;3.03;;
70549;SDS011;58101;48.658;2.328;2023-07-22T10:20:32;6.78;;;2.97;;
70549;SDS011;58101;48.658;2.328;2023-07-22T10:23:01;8.82;;;3.00;;
70549;SDS011;58101;48.658;2.328;2023-07-22T10:25:27;6.40;;;2.50;;
70549;SDS011;58101;48.658;2.328;2023-07-22T10:27:53;8.55;;;2.85;;
70549;SDS011;58101;48.658;2.328;2023-07-22T10:30:19;7.80;;;2.72;;
70549;SDS011;58101;48.658;2.328;2023-07-22T10:32:45;7.57;;;3.00;;
70549;SDS011;58101;48.658;2.328;2023-07-22T10:38:06;8.10;;;2.80;;
70549;SDS011;58101;48.658;2.328;2023-07-22T10:40:55;6.88;;;2.80;;
70549;SDS011;58101;48.658;2.328;2023-07-22T10:45:51;7.50;;;3.25;;
70549;SDS011;58101;48.658;2.328;2023-07-22T10:48:27;6.90;;;2.60;;
70549;SDS011;58101;48.658;2.328;2023-07-22T10:51:07;8.63;;;2.88;;
70549;SDS011;58101;48.658;2.328;2023-07-22T10:53:47;8.55;;;3.08;;
70549;SDS011;58101;48.658;2.328;2023-07-22T10:56:20;7.13;;;2.70;;
70549;SDS011;58101;48.658;2.328;2023-07-22T11:11:54;8.32;;;2.65;;
70549;SDS011;58101;48.658;2.328;2023-07-22T11:14:32;10.65;;;2.85;;
70549;SDS011;58101;48.658;2.328;2023-07-22T11:17:00;7.75;;;2.70;;
70549;SDS011;58101;48.658;2.328;2023-07-22T11:19:29;8.00;;;2.60;;
70549;SDS011;58101;48.658;2.328;2023-07-22T11:21:55;6.60;;;2.63;;
70549;SDS011;58101;48.658;2.328;2023-07-22T11:26:48;6.25;;;2.40;;
70549;SDS011;58101;48.658;2.328;2023-07-22T11:29:15;6.90;;;3.00;;
70549;SDS011;58101;48.658;2.328;2023-07-22T11:31:42;6.53;;;2.40;;
70549;SDS011;58101;48.658;2.328;2023-07-22T11:34:12;6.57;;;2.30;;
70549;SDS011;58101;48.658;2.328;2023-07-22T11:36:40;7.95;;;2.83;;
70549;SDS011;58101;48.658;2.328;2023-07-22T11:39:07;7.53;;;2.78;;
70549;SDS011;58101;48.658;2.328;2023-07-22T11:41:43;7.35;;;2.50;;
70549;SDS011;58101;48.658;2.328;2023-07-22T11:44:10;6.97;;;2.67;;
70549;SDS011;58101;48.658;2.328;2023-07-22T11:49:13;10.32;;;3.00;;
70549;SDS011;58101;48.658;2.328;2023-07-22T11:51:51;8.27;;;2.67;;
70549;SDS011;58101;48.658;2.328;2023-07-22T11:54:24;9.55;;;2.83;;
70549;SDS011;58101;48.658;2.328;2023-07-22T11:56:50;6.40;;;2.58;;
70549;SDS011;58101;48.658;2.328;2023-07-22T12:01:43;6.93;;;2.63;;
70549;SDS011;58101;48.658;2.328;2023-07-22T12:04:10;6.60;;;2.50;;
70549;SDS011;58101;48.658;2.328;2023-07-22T12:06:37;7.00;;;2.55;;
70549;SDS011;58101;48.658;2.328;2023-07-22T12:11:28;6.63;;;2.50;;
70549;SDS011;58101;48.658;2.328;2023-07-22T12:14:06;8.75;;;2.53;;
70549;SDS011;58101;48.658;2.328;2023-07-22T12:16:36;7.57;;;2.63;;
70549;SDS011;58101;48.658;2.328;2023-07-22T12:19:03;6.75;;;2.65;;
70549;SDS011;58101;48.658;2.328;2023-07-22T12:21:29;7.53;;;2.70;;
70549;SDS011;58101;48.658;2.328;2023-07-22T12:26:21;7.45;;;2.35;;
70549;SDS011;58101;48.658;2.328;2023-07-22T12:28:47;7.15;;;2.78;;
70549;SDS011;58101;48.658;2.328;2023-07-22T12:33:38;7.15;;;2.50;;
70549;SDS011;58101;48.658;2.328;2023-07-22T12:38:30;6.35;;;2.40;;
70549;SDS011;58101;48.658;2.328;2023-07-22T12:40:56;8.32;;;2.60;;
70549;SDS011;58101;48.658;2.328;2023-07-22T12:45:47;8.02;;;2.60;;
70549;SDS011;58101;48.658;2.328;2023-07-22T12:50:38;6.63;;;2.58;;
70549;SDS011;58101;48.658;2.328;2023-07-22T12:53:04;6.82;;;2.60;;
70549;SDS011;58101;48.658;2.328;2023-07-22T12:55:30;8.30;;;2.25;;
70549;SDS011;58101;48.658;2.328;2023-07-22T13:00:21;6.22;;;2.50;;
70549;SDS011;58101;48.658;2.328;2023-07-22T13:02:47;6.93;;;2.30;;
70549;SDS011;58101;48.658;2.328;2023-07-22T13:05:13;5.95;;;2.35;;
70549;SDS011;58101;48.658;2.328;2023-07-22T13:07:41;8.05;;;2.40;;
70549;SDS011;58101;48.658;2.328;2023-07-22T13:12:36;7.10;;;2.33;;
70549;SDS011;58101;48.658;2.328;2023-07-22T13:15:02;7.30;;;2.35;;
70549;SDS011;58101;48.658;2.328;2023-07-22T13:17:28;7.47;;;2.60;;
70549;SDS011;58101;48.658;2.328;2023-07-22T13:22:22;7.45;;;2.53;;
70549;SDS011;58101;48.658;2.328;2023-07-22T13:27:13;7.82;;;2.58;;
70549;SDS011;58101;48.658;2.328;2023-07-22T13:32:05;6.75;;;2.58;;
70549;SDS011;58101;48.658;2.328;2023-07-22T13:34:31;6.65;;;2.50;;
70549;SDS011;58101;48.658;2.328;2023-07-22T13:39:22;7.35;;;2.33;;
70549;SDS011;58101;48.658;2.328;2023-07-22T13:41:50;8.88;;;2.85;;
70549;SDS011;58101;48.658;2.328;2023-07-22T13:44:16;6.60;;;2.55;;
70549;SDS011;58101;48.658;2.328;2023-07-22T13:49:07;7.03;;;2.45;;
70549;SDS011;58101;48.658;2.328;2023-07-22T13:53:58;7.03;;;2.85;;
70549;SDS011;58101;48.658;2.328;2023-07-22T13:58:53;7.18;;;2.47;;
70549;SDS011;58101;48.658;2.328;2023-07-22T14:01:24;8.10;;;3.00;;
70549;SDS011;58101;48.658;2.328;2023-07-22T14:06:15;6.70;;;2.70;;
70549;SDS011;58101;48.658;2.328;2023-07-22T14:11:06;6.47;;;2.50;;
70549;SDS011;58101;48.658;2.328;2023-07-22T14:13:33;6.70;;;2.60;;
70549;SDS011;58101;48.658;2.328;2023-07-22T14:18:27;6.55;;;2.20;;
70549;SDS011;58101;48.658;2.328;2023-07-22T14:20:52;8.50;;;2.80;;
70549;SDS011;58101;48.658;2.328;2023-07-22T14:25:43;8.20;;;2.88;;
70549;SDS011;58101;48.658;2.328;2023-07-22T14:30:34;8.13;;;2.80;;
70549;SDS011;58101;48.658;2.328;2023-07-22T14:35:26;6.20;;;2.45;;
70549;SDS011;58101;48.658;2.328;2023-07-22T14:37:51;7.28;;;2.60;;
70549;SDS011;58101;48.658;2.328;2023-07-22T14:42:42;6.68;;;2.30;;
70549;SDS011;58101;48.658;2.328;2023-07-22T14:45:08;7.35;;;2.58;;
70549;SDS011;58101;48.658;2.328;2023-07-22T14:47:34;6.38;;;2.47;;
70549;SDS011;58101;48.658;2.328;2023-07-22T14:52:25;9.15;;;2.70;;
70549;SDS011;58101;48.658;2.328;2023-07-22T14:57:17;6.80;;;2.63;;
70549;SDS011;58101;48.658;2.328;2023-07-22T14:59:43;7.80;;;2.80;;
70549;SDS011;58101;48.658;2.328;2023-07-22T15:04:35;7.15;;;2.67;;
70549;SDS011;58101;48.658;2.328;2023-07-22T15:09:27;7.03;;;2.40;;
70549;SDS011;58101;48.658;2.328;2023-07-22T15:11:52;9.90;;;2.70;;
70549;SDS011;58101;48.658;2.328;2023-07-22T15:14:18;6.25;;;2.42;;
70549;SDS011;58101;48.658;2.328;2023-07-22T15:16:44;6.63;;;2.25;;
70549;SDS011;58101;48.658;2.328;2023-07-22T15:19:10;6.75;;;2.50;;
70549;SDS011;58101;48.658;2.328;2023-07-22T15:24:01;7.65;;;2.50;;
70549;SDS011;58101;48.658;2.328;2023-07-22T15:26:27;6.35;;;2.60;;
70549;SDS011;58101;48.658;2.328;2023-07-22T15:31:19;7.68;;;2.40;;
70549;SDS011;58101;48.658;2.328;2023-07-22T15:33:46;8.27;;;2.75;;
70549;SDS011;58101;48.658;2.328;2023-07-22T15:38:37;7.88;;;2.40;;
70549;SDS011;58101;48.658;2.328;2023-07-22T15:41:03;6.32;;;2.40;;
70549;SDS011;58101;48.658;2.328;2023-07-22T15:43:28;6.68;;;2.53;;
70549;SDS011;58101;48.658;2.328;2023-07-22T15:45:56;6.30;;;2.55;;
70549;SDS011;58101;48.658;2.328;2023-07-22T15:48:23;8.77;;;2.60;;
70549;SDS011;58101;48.658;2.328;2023-07-22T15:50:49;6.68;;;2.50;;
70549;SDS011;58101;48.658;2.328;2023-07-22T15:55:41;6.00;;;2.17;;
70549;SDS011;58101;48.658;2.328;2023-07-22T16:00:33;6.15;;;2.40;;
70549;SDS011;58101;48.658;2.328;2023-07-22T16:02:58;7.38;;;2.47;;
70549;SDS011;58101;48.658;2.328;2023-07-22T16:07:50;6.07;;;2.30;;
70549;SDS011;58101;48.658;2.328;2023-07-22T16:10:15;9.27;;;2.78;;
70549;SDS011;58101;48.658;2.328;2023-07-22T16:12:41;7.72;;;2.38;;
70549;SDS011;58101;48.658;2.328;2023-07-22T16:15:07;10.43;;;2.47;;
70549;SDS011;58101;48.658;2.328;2023-07-22T16:17:33;7.18;;;2.33;;
70549;SDS011;58101;48.658;2.328;2023-07-22T16:19:59;7.53;;;2.35;;
70549;SDS011;58101;48.658;2.328;2023-07-22T16:22:25;6.40;;;2.47;;
70549;SDS011;58101;48.658;2.328;2023-07-22T16:24:51;7.68;;;2.70;;
70549;SDS011;58101;48.658;2.328;2023-07-22T16:27:16;6.07;;;2.40;;
70549;SDS011;58101;48.658;2.328;2023-07-22T16:29:42;6.93;;;2.40;;
70549;SDS011;58101;48.658;2.328;2023-07-22T16:32:08;6.90;;;2.20;;
70549;SDS011;58101;48.658;2.328;2023-07-22T16:36:59;6.97;;;2.30;;
70549;SDS011;58101;48.658;2.328;2023-07-22T16:39:25;7.20;;;2.38;;